createdAt,value
2023-05-03T00:01:44.454Z,2.65
2023-05-03T00:04:11.864Z,2.95
2023-05-03T00:06:39.605Z,2.60
2023-05-03T00:09:07.002Z,3.03
2023-05-03T00:11:34.650Z,2.83
2023-05-03T00:14:01.936Z,2.53
2023-05-03T00:16:29.404Z,2.45
2023-05-03T00:18:56.673Z,2.65
2023-05-03T00:21:24.103Z,2.38
2023-05-03T00:23:51.490Z,2.90
2023-05-03T00:26:19.047Z,2.50
2023-05-03T00:28:46.967Z,2.45
2023-05-03T00:31:14.424Z,2.25
2023-05-03T00:33:41.824Z,2.70
2023-05-03T00:36:11.254Z,2.92
2023-05-03T00:38:39.373Z,2.53
2023-05-03T00:41:07.901Z,2.72
2023-05-03T00:43:35.903Z,2.80
2023-05-03T00:46:15.974Z,2.83
2023-05-03T00:48:48.276Z,2.85
2023-05-03T00:51:17.018Z,2.50
2023-05-03T00:53:44.397Z,2.63
2023-05-03T00:56:12.270Z,2.92
2023-05-03T00:58:40.817Z,2.58
2023-05-03T01:01:09.141Z,2.92
2023-05-03T01:03:41.847Z,2.70
2023-05-03T01:06:13.189Z,2.65
2023-05-03T01:08:48.146Z,2.70
2023-05-03T01:11:24.626Z,2.53
2023-05-03T01:13:56.453Z,3.60
2023-05-03T01:16:31.499Z,3.20
2023-05-03T01:19:03.747Z,2.85
2023-05-03T01:21:34.062Z,2.97
2023-05-03T01:24:07.562Z,2.80
2023-05-03T01:26:34.906Z,2.80
2023-05-03T01:29:02.368Z,2.88
2023-05-03T01:31:39.056Z,2.83
2023-05-03T01:34:13.499Z,2.75
2023-05-03T01:36:44.530Z,2.80
2023-05-03T01:39:18.438Z,2.88
2023-05-03T01:41:47.279Z,3.00
2023-05-03T01:44:16.349Z,3.00
2023-05-03T01:46:45.220Z,2.90
2023-05-03T01:49:13.239Z,2.55
2023-05-03T01:51:40.638Z,2.83
2023-05-03T01:54:08.015Z,3.00
2023-05-03T01:56:37.638Z,2.53
2023-05-03T01:59:05.382Z,3.08
2023-05-03T02:01:32.936Z,2.58
2023-05-03T02:04:01.452Z,3.15
2023-05-03T02:06:28.979Z,2.92
2023-05-03T02:09:00.114Z,3.03
2023-05-03T02:11:27.649Z,2.78
2023-05-03T02:13:54.939Z,2.72
2023-05-03T02:16:22.466Z,3.20
2023-05-03T02:18:52.108Z,2.92
2023-05-03T02:21:19.532Z,2.70
2023-05-03T02:23:47.117Z,3.60
2023-05-03T02:26:14.856Z,2.80
2023-05-03T02:28:42.139Z,3.03
2023-05-03T02:31:09.660Z,2.80
2023-05-03T02:33:37.977Z,3.30
2023-05-03T02:36:05.938Z,3.03
2023-05-03T02:38:33.348Z,3.13
2023-05-03T02:41:00.889Z,3.20
2023-05-03T02:43:28.182Z,3.10
2023-05-03T02:45:55.610Z,3.28
2023-05-03T02:48:23.416Z,3.25
2023-05-03T02:50:51.401Z,2.90
2023-05-03T02:53:18.739Z,2.95
2023-05-03T02:55:46.978Z,3.50
2023-05-03T02:58:14.266Z,3.33
2023-05-03T03:00:41.954Z,3.17
2023-05-03T03:03:09.776Z,3.20
2023-05-03T03:05:37.279Z,3.50
2023-05-03T03:08:04.833Z,2.92
2023-05-03T03:10:33.280Z,3.13
2023-05-03T03:13:00.879Z,3.08
2023-05-03T03:15:34.642Z,3.55
2023-05-03T03:18:02.106Z,3.20
2023-05-03T03:20:29.482Z,3.58
2023-05-03T03:22:57.778Z,3.10
2023-05-03T03:25:25.235Z,3.42
2023-05-03T03:27:56.061Z,3.10
2023-05-03T03:30:23.589Z,3.33
2023-05-03T03:33:00.610Z,3.28
2023-05-03T03:35:35.501Z,2.85
2023-05-03T03:38:04.121Z,3.42
2023-05-03T03:40:32.386Z,3.75
2023-05-03T03:43:00.929Z,3.47
2023-05-03T03:45:28.193Z,3.70
2023-05-03T03:47:58.421Z,3.00
2023-05-03T03:50:27.517Z,3.13
2023-05-03T03:52:54.849Z,3.40
2023-05-03T03:55:23.462Z,3.45
2023-05-03T03:57:54.107Z,3.30
2023-05-03T04:00:24.107Z,3.22
2023-05-03T04:02:58.970Z,3.13
2023-05-03T04:05:26.491Z,3.60
2023-05-03T04:07:55.123Z,3.45
2023-05-03T04:10:22.630Z,3.85
2023-05-03T04:12:49.937Z,3.75
2023-05-03T04:15:17.457Z,3.83
2023-05-03T04:17:46.884Z,3.60
2023-05-03T04:20:14.467Z,3.60
2023-05-03T04:22:47.158Z,3.70
2023-05-03T04:25:17.500Z,3.85
2023-05-03T04:27:52.600Z,3.65
2023-05-03T04:30:21.500Z,3.92
2023-05-03T04:32:54.591Z,3.40
2023-05-03T04:35:24.137Z,3.67
2023-05-03T04:37:52.467Z,3.47
2023-05-03T04:40:23.676Z,3.83
2023-05-03T04:43:00.746Z,4.00
2023-05-03T04:45:30.678Z,3.83
2023-05-03T04:47:58.517Z,3.97
2023-05-03T04:50:26.309Z,3.53
2023-05-03T04:52:54.641Z,4.07
2023-05-03T04:55:24.821Z,3.38
2023-05-03T04:57:54.478Z,3.83
2023-05-03T05:00:22.720Z,4.25
2023-05-03T05:02:58.095Z,3.80
2023-05-03T05:05:28.777Z,3.88
2023-05-03T05:07:58.340Z,4.40
2023-05-03T05:10:28.484Z,4.18
2023-05-03T05:12:58.242Z,3.95
2023-05-03T05:15:25.962Z,3.85
2023-05-03T05:17:53.751Z,4.10
2023-05-03T05:20:21.384Z,4.10
2023-05-03T05:22:50.623Z,4.13
2023-05-03T05:25:19.713Z,4.25
2023-05-03T05:27:47.783Z,3.72
2023-05-03T05:30:15.862Z,4.13
2023-05-03T05:32:44.335Z,4.15
2023-05-03T05:35:13.530Z,3.85
2023-05-03T05:37:41.371Z,4.05
2023-05-03T05:40:09.822Z,4.30
2023-05-03T05:42:42.815Z,4.20
2023-05-03T05:45:11.094Z,4.07
2023-05-03T05:47:40.165Z,4.00
2023-05-03T05:50:17.036Z,4.05
2023-05-03T05:52:53.522Z,4.13
2023-05-03T05:55:22.822Z,4.00
2023-05-03T05:57:51.599Z,3.90
2023-05-03T06:00:24.513Z,4.10
2023-05-03T06:02:52.373Z,3.97
2023-05-03T06:05:22.292Z,37.90
2023-05-03T06:07:50.515Z,39.92
2023-05-03T06:10:18.340Z,22.75
2023-05-03T06:12:49.226Z,17.55
2023-05-03T06:15:22.670Z,22.55
2023-05-03T06:17:50.298Z,16.73
2023-05-03T06:20:18.523Z,15.50
2023-05-03T06:22:47.647Z,13.27
2023-05-03T06:25:17.847Z,10.38
2023-05-03T06:27:50.122Z,12.40
2023-05-03T06:30:20.407Z,10.38
2023-05-03T06:32:49.297Z,14.18
2023-05-03T06:35:20.059Z,12.48
2023-05-03T06:37:48.317Z,9.10
2023-05-03T06:40:16.291Z,8.57
2023-05-03T06:42:43.786Z,11.10
2023-05-03T06:45:15.558Z,8.43
2023-05-03T06:47:43.288Z,6.97
2023-05-03T06:50:11.461Z,5.40
2023-05-03T06:52:38.996Z,5.50
2023-05-03T06:55:07.207Z,4.97
2023-05-03T06:57:34.737Z,5.15
2023-05-03T07:00:02.303Z,4.57
2023-05-03T07:02:30.308Z,4.43
2023-05-03T07:04:57.745Z,4.18
2023-05-03T07:07:25.132Z,4.20
2023-05-03T07:09:52.517Z,4.07
2023-05-03T07:12:19.998Z,4.30
2023-05-03T07:14:47.724Z,4.30
2023-05-03T07:17:15.105Z,4.60
2023-05-03T07:19:42.447Z,4.38
2023-05-03T07:22:10.564Z,3.92
2023-05-03T07:24:38.428Z,4.03
2023-05-03T07:27:05.951Z,4.47
2023-05-03T07:29:33.484Z,4.10
2023-05-03T07:32:01.182Z,4.25
2023-05-03T07:34:28.528Z,4.68
2023-05-03T07:36:56.622Z,4.50
2023-05-03T07:39:23.882Z,4.70
2023-05-03T07:41:51.533Z,4.22
2023-05-03T07:44:18.831Z,7.10
2023-05-03T07:46:46.217Z,5.10
2023-05-03T07:49:13.672Z,5.15
2023-05-03T07:51:42.083Z,4.70
2023-05-03T07:54:09.544Z,4.55
2023-05-03T07:56:36.979Z,4.65
2023-05-03T07:59:10.002Z,4.20
2023-05-03T08:01:38.689Z,4.18
2023-05-03T08:04:06.344Z,3.85
2023-05-03T08:06:36.057Z,4.47
2023-05-03T08:09:05.107Z,4.13
2023-05-03T08:11:32.598Z,4.38
2023-05-03T08:13:59.973Z,4.15
2023-05-03T08:16:27.753Z,4.13
2023-05-03T08:18:55.128Z,4.32
2023-05-03T08:21:25.048Z,4.63
2023-05-03T08:23:52.566Z,4.30
2023-05-03T08:26:22.255Z,3.90
2023-05-03T08:28:49.953Z,4.32
2023-05-03T08:31:18.030Z,4.15
2023-05-03T08:33:45.768Z,4.35
2023-05-03T08:36:13.116Z,4.38
2023-05-03T08:38:41.678Z,5.18
2023-05-03T08:41:22.613Z,4.45
2023-05-03T08:43:54.410Z,4.80
2023-05-03T08:46:22.314Z,5.15
2023-05-03T08:48:52.753Z,4.38
2023-05-03T08:51:22.059Z,4.18
2023-05-03T08:53:50.172Z,4.68
2023-05-03T08:56:26.221Z,4.25
2023-05-03T08:58:53.854Z,3.92
2023-05-03T09:01:21.243Z,3.90
2023-05-03T09:03:51.960Z,4.00
2023-05-03T09:06:22.736Z,3.60
2023-05-03T09:08:50.263Z,3.78
2023-05-03T09:11:23.621Z,3.85
2023-05-03T09:13:53.286Z,3.63
2023-05-03T09:16:23.222Z,3.78
2023-05-03T09:18:53.671Z,4.10
2023-05-03T09:21:21.131Z,3.60
2023-05-03T09:23:48.580Z,3.38
2023-05-03T09:26:29.261Z,3.47
2023-05-03T09:28:59.025Z,3.97
2023-05-03T09:31:26.554Z,3.90
2023-05-03T09:33:54.231Z,3.90
2023-05-03T09:36:21.891Z,3.60
2023-05-03T09:38:50.179Z,3.28
2023-05-03T09:41:26.596Z,3.42
2023-05-03T09:43:56.460Z,3.55
2023-05-03T09:46:25.721Z,3.40
2023-05-03T09:48:55.771Z,3.50
2023-05-03T09:51:24.654Z,3.90
2023-05-03T09:53:52.273Z,3.15
2023-05-03T09:56:22.789Z,3.30
2023-05-03T09:58:50.162Z,3.42
2023-05-03T10:01:17.971Z,3.22
2023-05-03T10:03:50.867Z,3.50
2023-05-03T10:06:21.845Z,3.13
2023-05-03T10:08:55.122Z,3.63
2023-05-03T10:11:26.961Z,3.90
2023-05-03T10:13:56.188Z,3.50
2023-05-03T10:16:29.564Z,3.30
2023-05-03T10:19:06.543Z,3.40
2023-05-03T10:21:45.064Z,3.40
2023-05-03T10:24:16.158Z,3.30
2023-05-03T10:26:47.612Z,3.25
2023-05-03T10:29:18.364Z,3.20
2023-05-03T10:31:48.070Z,3.33
2023-05-03T10:34:39.747Z,3.20
2023-05-03T10:37:10.575Z,3.58
2023-05-03T10:39:44.374Z,3.85
2023-05-03T10:42:11.738Z,5.72
2023-05-03T10:44:41.359Z,5.60
2023-05-03T10:47:18.947Z,5.88
2023-05-03T10:49:46.840Z,6.25
2023-05-03T10:52:35.577Z,3.67
2023-05-03T10:55:10.426Z,7.43
2023-05-03T10:57:40.526Z,6.38
2023-05-03T11:00:16.688Z,3.53
2023-05-03T11:03:01.157Z,4.38
2023-05-03T11:05:30.515Z,3.33
2023-05-03T11:08:01.706Z,2.60
2023-05-03T11:10:29.104Z,2.42
2023-05-03T11:12:56.400Z,2.42
2023-05-03T11:15:23.835Z,2.80
2023-05-03T11:17:51.276Z,3.03
2023-05-03T11:20:19.545Z,5.38
2023-05-03T11:22:47.134Z,2.80
2023-05-03T11:25:15.825Z,2.20
2023-05-03T11:27:43.248Z,2.38
2023-05-03T11:30:11.360Z,2.13
2023-05-03T11:32:39.190Z,2.40
2023-05-03T11:35:07.693Z,2.30
2023-05-03T11:37:35.718Z,2.35
2023-05-03T11:40:05.096Z,2.22
2023-05-03T11:42:32.322Z,2.38
2023-05-03T11:45:02.058Z,2.50
2023-05-03T11:47:29.834Z,2.30
2023-05-03T11:49:58.368Z,2.40
2023-05-03T11:52:27.975Z,2.10
2023-05-03T11:54:56.415Z,2.40
2023-05-03T11:57:26.054Z,2.10
2023-05-03T11:59:53.580Z,2.20
2023-05-03T12:02:22.942Z,2.10
2023-05-03T12:04:50.908Z,2.10
2023-05-03T12:07:21.523Z,2.20
2023-05-03T12:10:03.511Z,1.95
2023-05-03T12:12:41.120Z,2.00
2023-05-03T12:15:11.677Z,1.95
2023-05-03T12:17:44.229Z,2.05
2023-05-03T12:22:51.116Z,1.85
2023-05-03T12:25:20.809Z,2.00
2023-05-03T12:28:02.000Z,1.90
2023-05-03T12:30:40.064Z,1.77
2023-05-03T12:33:10.035Z,2.00
2023-05-03T12:35:40.632Z,1.65
2023-05-03T12:38:09.890Z,1.60
2023-05-03T12:40:39.727Z,1.75
2023-05-03T12:43:07.744Z,1.38
2023-05-03T12:45:35.314Z,1.50
2023-05-03T12:48:03.648Z,2.08
2023-05-03T12:50:32.288Z,1.90
2023-05-03T12:53:02.721Z,1.73
2023-05-03T12:55:35.734Z,2.10
2023-05-03T12:58:36.826Z,1.80
2023-05-03T13:03:32.606Z,1.80
2023-05-03T13:06:11.116Z,1.80
2023-05-03T13:08:48.875Z,1.70
2023-05-03T13:11:20.037Z,1.90
2023-05-03T13:13:47.803Z,2.00
2023-05-03T13:16:15.274Z,1.58
2023-05-03T13:18:43.230Z,1.70
2023-05-03T13:21:11.882Z,1.98
2023-05-03T13:23:39.128Z,1.70
2023-05-03T13:26:07.289Z,1.90
2023-05-03T13:28:34.781Z,1.75
2023-05-03T13:31:02.112Z,1.73
2023-05-03T13:33:29.471Z,2.08
2023-05-03T13:35:57.665Z,1.83
2023-05-03T13:38:24.904Z,1.60
2023-05-03T13:40:52.884Z,1.90
2023-05-03T13:43:20.245Z,1.95
2023-05-03T13:45:47.628Z,1.73
2023-05-03T13:48:18.378Z,2.00
2023-05-03T13:50:46.740Z,1.80
2023-05-03T13:53:14.037Z,1.92
2023-05-03T13:55:41.574Z,1.50
2023-05-03T13:58:08.990Z,1.77
2023-05-03T14:00:36.447Z,1.70
2023-05-03T14:03:04.109Z,2.00
2023-05-03T14:05:31.863Z,1.80
2023-05-03T14:07:59.843Z,2.00
2023-05-03T14:10:27.318Z,1.80
2023-05-03T14:12:54.880Z,1.70
2023-05-03T14:15:22.265Z,1.98
2023-05-03T14:17:49.716Z,1.65
2023-05-03T14:20:17.972Z,1.60
2023-05-03T14:22:46.429Z,1.77
2023-05-03T14:25:13.787Z,1.70
2023-05-03T14:27:41.247Z,1.90
2023-05-03T14:30:10.016Z,1.80
2023-05-03T14:32:37.364Z,1.92
2023-05-03T14:35:05.119Z,1.88
2023-05-03T14:37:33.644Z,2.13
2023-05-03T14:40:01.796Z,1.55
2023-05-03T14:42:30.928Z,2.08
2023-05-03T14:44:59.278Z,2.05
2023-05-03T14:47:26.569Z,1.92
2023-05-03T14:49:53.990Z,2.05
2023-05-03T14:52:21.326Z,1.90
2023-05-03T14:54:48.670Z,2.17
2023-05-03T14:57:44.579Z,2.38
2023-05-03T15:00:15.435Z,2.20
2023-05-03T15:02:42.923Z,2.25
2023-05-03T15:05:11.113Z,2.05
2023-05-03T15:07:38.779Z,1.85
2023-05-03T15:10:08.128Z,1.90
2023-05-03T15:12:36.347Z,1.88
2023-05-03T15:15:04.335Z,1.90
2023-05-03T15:17:31.872Z,1.80
2023-05-03T15:19:59.211Z,1.77
2023-05-03T15:22:26.872Z,1.90
2023-05-03T15:24:54.142Z,1.98
2023-05-03T15:27:21.561Z,1.90
2023-05-03T15:29:48.831Z,1.88
2023-05-03T15:32:16.406Z,2.22
2023-05-03T15:34:43.749Z,1.92
2023-05-03T15:37:13.364Z,1.70
2023-05-03T15:39:40.634Z,1.80
2023-05-03T15:42:08.048Z,1.90
2023-05-03T15:44:35.350Z,1.77
2023-05-03T15:47:02.918Z,1.83
2023-05-03T15:49:30.331Z,1.90
2023-05-03T15:51:58.163Z,1.90
2023-05-03T15:54:25.547Z,1.70
2023-05-03T15:56:53.438Z,1.90
2023-05-03T15:59:20.945Z,1.80
2023-05-03T16:01:48.779Z,1.90
2023-05-03T16:04:16.211Z,1.92
2023-05-03T16:06:43.691Z,2.20
2023-05-03T16:09:12.599Z,1.90
2023-05-03T16:11:40.127Z,2.08
2023-05-03T16:14:09.594Z,1.90
2023-05-03T16:16:39.263Z,1.80
2023-05-03T16:19:07.667Z,1.70
2023-05-03T16:21:35.146Z,1.60
2023-05-03T16:24:02.477Z,1.95
2023-05-03T16:26:31.877Z,1.98
2023-05-03T16:28:59.142Z,1.80
2023-05-03T16:31:28.640Z,1.70
2023-05-03T16:33:56.104Z,2.25
2023-05-03T16:36:24.259Z,1.80
2023-05-03T16:38:51.551Z,2.00
2023-05-03T16:41:18.992Z,2.13
2023-05-03T16:43:46.249Z,2.05
2023-05-03T16:46:13.691Z,1.85
2023-05-03T16:48:41.869Z,2.60
2023-05-03T16:51:09.161Z,2.20
2023-05-03T16:53:36.793Z,2.20
2023-05-03T16:56:04.400Z,13.13
2023-05-03T16:58:31.639Z,4.00
2023-05-03T17:00:59.076Z,2.38
2023-05-03T17:03:26.745Z,2.70
2023-05-03T17:05:54.249Z,1.90
2023-05-03T17:08:21.754Z,2.05
2023-05-03T17:10:50.438Z,2.28
2023-05-03T17:13:17.750Z,1.95
2023-05-03T17:15:45.356Z,1.80
2023-05-03T17:18:12.763Z,2.10
2023-05-03T17:20:40.205Z,2.10
2023-05-03T17:23:07.523Z,2.03
2023-05-03T17:25:35.618Z,1.92
2023-05-03T17:28:03.611Z,1.90
2023-05-03T17:30:31.307Z,1.90
2023-05-03T17:32:58.862Z,1.80
2023-05-03T17:35:26.533Z,2.28
2023-05-03T17:37:53.775Z,2.08
2023-05-03T17:40:21.233Z,1.98
2023-05-03T17:42:48.585Z,1.90
2023-05-03T17:45:16.482Z,1.80
2023-05-03T17:47:43.922Z,2.13
2023-05-03T17:50:12.908Z,2.05
2023-05-03T17:52:40.797Z,1.70
2023-05-03T17:55:08.769Z,2.17
2023-05-03T17:57:37.697Z,1.85
2023-05-03T18:00:06.401Z,1.98
2023-05-03T18:02:34.498Z,2.00
2023-05-03T18:05:02.316Z,2.15
2023-05-03T18:07:29.567Z,1.83
2023-05-03T18:09:57.036Z,1.95
2023-05-03T18:12:24.305Z,1.73
2023-05-03T18:14:52.866Z,2.00
2023-05-03T18:17:20.415Z,2.00
2023-05-03T18:19:47.787Z,2.10
2023-05-03T18:22:15.084Z,2.10
2023-05-03T18:24:42.567Z,1.80
2023-05-03T18:27:10.072Z,2.17
2023-05-03T18:29:37.463Z,2.00
2023-05-03T18:32:05.773Z,1.98
2023-05-03T18:34:37.613Z,2.00
2023-05-03T18:37:05.423Z,1.90
2023-05-03T18:39:34.666Z,1.80
2023-05-03T18:42:02.010Z,1.95
2023-05-03T18:44:29.369Z,2.00
2023-05-03T18:46:57.127Z,2.00
2023-05-03T18:49:24.454Z,2.03
2023-05-03T18:51:51.830Z,2.00
2023-05-03T18:54:20.727Z,2.05
2023-05-03T18:56:48.232Z,1.70
2023-05-03T18:59:15.509Z,1.83
2023-05-03T19:01:42.969Z,2.03
2023-05-03T19:04:10.333Z,2.08
2023-05-03T19:06:37.738Z,1.83
2023-05-03T19:09:05.028Z,1.70
2023-05-03T19:11:32.472Z,1.75
2023-05-03T19:14:00.550Z,1.85
2023-05-03T19:16:28.081Z,2.00
2023-05-03T19:18:56.111Z,2.10
2023-05-03T19:21:23.548Z,1.73
2023-05-03T19:23:51.825Z,1.98
2023-05-03T19:26:19.230Z,1.83
2023-05-03T19:28:47.327Z,2.10
2023-05-03T19:31:14.977Z,2.35
2023-05-03T19:33:42.335Z,1.98
2023-05-03T19:36:12.582Z,1.90
2023-05-03T19:38:39.922Z,2.00
2023-05-03T19:41:08.305Z,2.05
2023-05-03T19:43:35.761Z,2.33
2023-05-03T19:46:03.250Z,2.00
2023-05-03T19:48:30.659Z,2.15
2023-05-03T19:50:58.986Z,2.10
2023-05-03T19:53:28.491Z,1.90
2023-05-03T19:55:58.268Z,1.80
2023-05-03T19:58:26.292Z,2.20
2023-05-03T20:00:54.902Z,2.30
2023-05-03T20:03:23.651Z,1.70
2023-05-03T20:05:51.174Z,2.00
2023-05-03T20:08:18.502Z,2.10
2023-05-03T20:10:46.615Z,2.10
2023-05-03T20:13:14.195Z,2.38
2023-05-03T20:15:41.804Z,2.20
2023-05-03T20:18:09.212Z,2.08
2023-05-03T20:20:36.859Z,2.40
2023-05-03T20:23:04.173Z,2.33
2023-05-03T20:25:32.610Z,2.33
2023-05-03T20:27:59.863Z,2.00
2023-05-03T20:30:29.290Z,2.17
2023-05-03T20:32:56.657Z,2.30
2023-05-03T20:35:24.201Z,2.17
2023-05-03T20:37:51.564Z,2.10
2023-05-03T20:40:18.997Z,2.10
2023-05-03T20:42:46.363Z,2.10
2023-05-03T20:45:13.867Z,2.00
2023-05-03T20:47:41.164Z,2.10
2023-05-03T20:50:09.154Z,2.03
2023-05-03T20:52:36.501Z,2.10
2023-05-03T20:55:03.980Z,2.30
2023-05-03T20:57:31.752Z,2.42
2023-05-03T21:00:00.490Z,2.05
2023-05-03T21:02:27.835Z,2.28
2023-05-03T21:04:55.337Z,2.35
2023-05-03T21:07:22.939Z,2.25
2023-05-03T21:09:50.309Z,1.90
2023-05-03T21:12:17.647Z,2.00
2023-05-03T21:14:45.107Z,2.40
2023-05-03T21:17:12.435Z,2.22
2023-05-03T21:19:40.011Z,1.90
2023-05-03T21:22:08.995Z,2.15
2023-05-03T21:24:36.540Z,2.10
2023-05-03T21:27:04.554Z,2.00
2023-05-03T21:29:31.973Z,1.80
2023-05-03T21:31:59.263Z,2.30
2023-05-03T21:34:26.678Z,2.10
2023-05-03T21:36:54.306Z,2.13
2023-05-03T21:39:21.848Z,2.10
2023-05-03T21:41:49.094Z,2.30
2023-05-03T21:44:16.738Z,2.08
2023-05-03T21:46:44.075Z,2.20
2023-05-03T21:49:12.108Z,2.30
2023-05-03T21:51:39.491Z,2.25
2023-05-03T21:54:06.811Z,2.15
2023-05-03T21:56:34.102Z,2.38
2023-05-03T21:59:01.702Z,2.10
2023-05-03T22:01:30.035Z,2.20
2023-05-03T22:03:58.230Z,2.17
2023-05-03T22:06:25.967Z,2.47
2023-05-03T22:08:54.078Z,1.90
2023-05-03T22:11:21.484Z,1.95
2023-05-03T22:14:05.827Z,2.30
2023-05-03T22:16:35.061Z,2.40
2023-05-03T22:19:02.678Z,2.10
2023-05-03T22:21:30.106Z,2.03
2023-05-03T22:23:57.549Z,2.20
2023-05-03T22:26:25.313Z,2.15
2023-05-03T22:28:52.642Z,2.25
2023-05-03T22:31:20.483Z,2.08
2023-05-03T22:33:49.166Z,2.22
2023-05-03T22:36:16.564Z,2.03
2023-05-03T22:38:44.004Z,2.17
2023-05-03T22:41:11.516Z,2.25
2023-05-03T22:43:38.794Z,2.00
2023-05-03T22:46:06.344Z,1.90
2023-05-03T22:48:34.339Z,2.10
2023-05-03T22:51:01.791Z,2.25
2023-05-03T22:53:29.059Z,2.20
2023-05-03T22:55:59.129Z,2.03
2023-05-03T22:58:26.524Z,2.40
2023-05-03T23:00:54.460Z,2.47
2023-05-03T23:03:22.621Z,2.28
2023-05-03T23:05:53.056Z,2.30
2023-05-03T23:08:21.404Z,2.00
2023-05-03T23:10:48.715Z,2.35
2023-05-03T23:13:16.841Z,2.20
2023-05-03T23:15:44.389Z,1.92
2023-05-03T23:18:11.830Z,2.20
2023-05-03T23:20:39.168Z,2.28
2023-05-03T23:23:06.978Z,2.30
2023-05-03T23:25:34.400Z,2.38
2023-05-03T23:28:02.081Z,2.03
2023-05-03T23:30:29.697Z,2.30
2023-05-03T23:32:57.887Z,2.40
2023-05-03T23:35:26.003Z,2.33
2023-05-03T23:37:53.321Z,2.10
2023-05-03T23:40:20.727Z,2.22
2023-05-03T23:42:49.228Z,2.22
2023-05-03T23:45:16.470Z,2.28
2023-05-03T23:47:44.016Z,2.10
2023-05-03T23:50:11.598Z,2.42
2023-05-03T23:52:39.331Z,2.50
2023-05-03T23:55:07.187Z,2.35
2023-05-03T23:57:34.648Z,2.00
